MSC Magnifica — 3FLO4 — position and weather

sailwx.info

Track history (hours):
 
Tides and Currents Weather Stations Pressure Air Temp Water Temp Dewpoint Dewpoint Depression Visibility Wind Speed Wind Dir Waves Ship Positions

MSC Magnifica

Last reported at 2017-Apr-24 03:00 UTC. Time now 2017-Apr-24 03:25 UTC.
Position N 43°47' E 008°25'.

Length 293 m; draft 7.8 m.

Type: Ship. MMSI: 352594000.

Date/timePositionNaut miles runAvg speedWind from/ knotsBaromVisibWave heightAir tempDewpointWater temp
2017-Apr-24 03:00N 43°47' E 008°25'1617.6
2017-Apr-24 02:04N 43°38' E 008°06'217.7
2017-Apr-24 01:59N 43°37' E 008°04'1617.3
2017-Apr-24 01:05N 43°30' E 007°45'117.1
2017-Apr-24 01:00N 43°29' E 007°44'917.4
2017-Apr-24 00:27N 43°24' E 007°32'817.2
2017-Apr-24 00:00N 43°20' E 007°23'714.8
2017-Apr-23 23:30N 43°17' E 007°14'7213.1
2017-Apr-23 18:02N 43°04' E 005°37'013.8
2017-Apr-23 18:00N 43°04' E 005°37'1514.1
2017-Apr-23 16:54N 43°11' E 005°18'513.4
2017-Apr-23 16:30N 43°16' E 005°16'5 8.9
2017-Apr-23 15:56N 43°21' E 005°20'0 0.0
2017-Apr-23 05:24N 43°21' E 005°20'1 1.5
2017-Apr-23 05:00N 43°21' E 005°19'3 5.0
2017-Apr-23 04:30N 43°19' E 005°17'10416.2
2017-Apr-22 22:06N 42°21' E 007°14'75 3.2
2017-Apr-21 22:22N 43°07' E 008°34'513.4
2017-Apr-21 21:58N 43°13' E 008°36'713.4
2017-Apr-21 21:28N 43°19' E 008°38'613.4
2017-Apr-21 21:00N 43°25' E 008°40'713.3
2017-Apr-21 20:30N 43°32' E 008°42'713.3
2017-Apr-21 20:01N 43°38' E 008°44'713.2
2017-Apr-21 19:30N 43°45' E 008°46'713.4
2017-Apr-21 19:00N 43°51' E 008°49'713.2
2017-Apr-21 18:30N 43°57' E 008°50'713.1
2017-Apr-21 18:00N 44°04' E 008°52'713.1
2017-Apr-21 17:30N 44°10' E 008°54'713.1
2017-Apr-21 17:00N 44°17' E 008°56'612.8
2017-Apr-21 16:30N 44°23' E 008°57'2 3.6
2017-Apr-21 15:57N 44°25' E 008°55'0 0.0
2017-Apr-21 15:30N 44°25' E 008°55'0 0.0
2017-Apr-21 15:00N 44°25' E 008°55'0 0.0
2017-Apr-21 14:30N 44°25' E 008°55'0 0.0
2017-Apr-21 13:30N 44°25' E 008°55'0 0.0
2017-Apr-21 13:00N 44°25' E 008°55'0 0.0
2017-Apr-21 12:30N 44°25' E 008°55'0 0.0
2017-Apr-21 12:00N 44°25' E 008°55'0 0.0
2017-Apr-21 11:30N 44°25' E 008°55'0 0.0
2017-Apr-21 11:00N 44°25' E 008°55'0 0.0
2017-Apr-21 10:30N 44°25' E 008°55'0 0.0
2017-Apr-21 10:00N 44°25' E 008°55'0 0.0
2017-Apr-21 09:30N 44°25' E 008°55'0 0.0
2017-Apr-21 09:00N 44°25' E 008°55'0 0.0
2017-Apr-21 08:21N 44°25' E 008°55'0 0.0
2017-Apr-21 07:51N 44°25' E 008°55'0 0.0
2017-Apr-21 07:21N 44°25' E 008°55'0 0.0
2017-Apr-21 06:54N 44°25' E 008°55'0 0.8
2017-Apr-21 06:31N 44°24' E 008°55'2 3.7
2017-Apr-21 06:01N 44°23' E 008°57'816.2
2017-Apr-21 05:31N 44°15' E 008°54'1020.1
2017-Apr-21 05:01N 44°07' E 008°46'1019.7
2017-Apr-21 04:30N 43°59' E 008°38'1019.5
2017-Apr-21 04:01N 43°51' E 008°30'1019.6
2017-Apr-21 03:30N 43°44' E 008°20'2919.8
2017-Apr-21 02:01N 43°29' E 007°45'319.7
2017-Apr-21 01:53N 43°28' E 007°42'819.7
2017-Apr-21 01:30N 43°24' E 007°33'1019.7
2017-Apr-21 01:00N 43°20' E 007°21'9018.0
2017-Apr-20 20:01N 43°12' E 005°18'020.8
2017-Apr-20 20:00N 43°12' E 005°18'917.6
2017-Apr-20 19:30N 43°20' E 005°18'1 0.1
2017-Apr-20 10:01N 43°21' E 005°20'0 2.0
2017-Apr-20 09:56N 43°21' E 005°19'2 5.5
2017-Apr-20 09:30N 43°19' E 005°17'917.9
2017-Apr-20 09:01N 43°11' E 005°19'1121.5
2017-Apr-20 08:31N 43°04' E 005°31'15820.8
2017-Apr-20 00:55N 43°06' E 009°07'921.4
2017-Apr-20 00:30N 43°07' E 009°19'1020.6
2017-Apr-20 00:00N 43°04' E 009°33'1121.0
2017-Apr-19 23:27N 42°55' E 009°42'54 1.2
2017-Apr-18 02:11N 42°21' E 010°38'2815.2
2017-Apr-18 00:20N 42°38' E 010°09'2514.1
2017-Apr-17 22:35N 43°02' E 010°00'215.3
2017-Apr-17 22:29N 43°04' E 009°60'715.2
2017-Apr-17 22:00N 43°10' E 009°55'815.1
2017-Apr-17 21:30N 43°16' E 009°49'815.0
2017-Apr-17 21:00N 43°23' E 009°44'714.8
2017-Apr-17 20:30N 43°29' E 009°39'715.0
2017-Apr-17 20:00N 43°36' E 009°34'714.9
2017-Apr-17 19:30N 43°42' E 009°29'815.0
2017-Apr-17 19:00N 43°49' E 009°23'715.0
2017-Apr-17 18:30N 43°55' E 009°18'816.1
2017-Apr-17 18:00N 44°02' E 009°12'918.3
2017-Apr-17 17:30N 44°10' E 009°06'918.2
2017-Apr-17 17:00N 44°18' E 008°60'713.6
2017-Apr-17 16:30N 44°24' E 008°55'1 1.5
2017-Apr-17 15:58N 44°25' E 008°55'0 0.0
2017-Apr-17 15:28N 44°25' E 008°55'0 0.0
2017-Apr-17 14:58N 44°25' E 008°55'0 0.0
2017-Apr-17 13:49N 44°25' E 008°55'0 0.0
2017-Apr-17 13:19N 44°25' E 008°55'0 0.0
2017-Apr-17 12:49N 44°25' E 008°55'0 0.0
2017-Apr-17 12:22N 44°25' E 008°55'0 0.0
2017-Apr-17 11:52N 44°25' E 008°55'0 0.0
2017-Apr-17 11:22N 44°25' E 008°55'0 0.0
2017-Apr-17 10:52N 44°25' E 008°55'0 0.0
2017-Apr-17 10:19N 44°25' E 008°55'0 0.0
2017-Apr-17 09:55N 44°25' E 008°55'0 0.0
2017-Apr-17 09:25N 44°25' E 008°55'0 0.0
2017-Apr-17 08:55N 44°25' E 008°55'0 0.0
2017-Apr-17 08:25N 44°25' E 008°55'0 0.0
2017-Apr-17 07:55N 44°25' E 008°55'0 0.0
2017-Apr-17 07:10N 44°25' E 008°55'0 0.0
2017-Apr-17 06:58N 44°25' E 008°55'0 0.0
2017-Apr-17 06:28N 44°25' E 008°55'0 0.0
2017-Apr-17 06:00N 44°25' E 008°55'0 0.3
2017-Apr-17 05:31N 44°25' E 008°55'2 3.9
2017-Apr-17 05:01N 44°23' E 008°57'714.8
2017-Apr-17 04:30N 44°17' E 009°02'815.7
2017-Apr-17 04:00N 44°10' E 009°07'815.6
2017-Apr-17 03:30N 44°03' E 009°13'815.2
2017-Apr-17 03:00N 43°56' E 009°18'815.6
2017-Apr-17 02:30N 43°50' E 009°23'918.0
2017-Apr-17 02:00N 43°42' E 009°30'918.1
2017-Apr-17 01:30N 43°34' E 009°36'918.0
2017-Apr-17 01:00N 43°26' E 009°42'917.8
2017-Apr-17 00:30N 43°19' E 009°48'917.9
2017-Apr-17 00:00N 43°11' E 009°55'918.2
2017-Apr-16 23:30N 43°03' E 010°00'918.3
2017-Apr-16 23:00N 42°54' E 010°01'2417.7
2017-Apr-16 21:41N 42°34' E 010°18'518.4
2017-Apr-16 21:26N 42°31' E 010°23'818.3
2017-Apr-16 20:58N 42°25' E 010°31'333 9.8
2017-Apr-15 11:03N 39°25' E 004°21'220.1
2017-Apr-15 10:57N 39°24' E 004°19'920.1
2017-Apr-15 10:30N 39°20' E 004°09'1019.9
2017-Apr-15 10:00N 39°14' E 003°58'1020.0
2017-Apr-15 09:30N 39°09' E 003°47'1020.3
2017-Apr-15 09:00N 39°04' E 003°35'1020.5
2017-Apr-15 08:30N 38°59' E 003°24'1020.6
2017-Apr-15 08:00N 38°54' E 003°12'1020.9
2017-Apr-15 07:30N 38°48' E 003°01'1020.5
2017-Apr-15 07:00N 38°43' E 002°50'1020.2
2017-Apr-15 06:30N 38°38' E 002°39'1020.5
2017-Apr-15 06:00N 38°33' E 002°27'1020.9
2017-Apr-15 05:30N 38°27' E 002°16'1121.5
2017-Apr-15 05:00N 38°22' E 002°04'1221.9
2017-Apr-15 04:29N 38°16' E 001°52'1021.5
2017-Apr-15 04:00N 38°11' E 001°40'1020.7
2017-Apr-15 03:30N 38°05' E 001°29'1120.7
2017-Apr-15 03:00N 37°60' E 001°18'1020.5
2017-Apr-15 02:30N 37°55' E 001°07'1020.3
2017-Apr-15 02:00N 37°50' E 000°55'1020.5
2017-Apr-15 01:30N 37°44' E 000°44'1120.6
2017-Apr-15 00:59N 37°39' E 000°33'1020.7
2017-Apr-15 00:30N 37°34' E 000°22'1020.4
2017-Apr-15 00:00N 37°29' E 000°11'1020.4
2017-Apr-14 23:30N 37°23' W 000°00'1020.5
2017-Apr-14 23:00N 37°18' W 000°11'1220.2
2017-Apr-14 22:25N 37°12' W 000°24'1019.9
2017-Apr-14 21:56N 37°07' W 000°34'1820.4
2017-Apr-14 21:03N 36°58' W 000°54'220.7
2017-Apr-14 20:57N 36°57' W 000°56'18610.8
2017-Apr-14 03:44N 36°23' W 004°43'720.3
2017-Apr-14 03:23N 36°18' W 004°50'  
Track history (hours):
 
Tides and Currents Weather Stations Pressure Air Temp Water Temp Dewpoint Dewpoint Depression Visibility Wind Speed Wind Dir Waves Ship Positions

MSC Magnifica

Last reported at 2017-Apr-24 03:00 UTC. Time now 2017-Apr-24 03:25 UTC.
Position N 43°47' E 008°25'.

Length 293 m; draft 7.8 m.

Type: Ship. MMSI: 352594000.

Date/timePositionNaut miles runAvg speedWind from/ knotsBaromVisibWave heightAir tempDewpointWater temp
2017-Apr-24 03:00N 43°47' E 008°25'1617.6
2017-Apr-24 02:04N 43°38' E 008°06'217.7
2017-Apr-24 01:59N 43°37' E 008°04'1617.3
2017-Apr-24 01:05N 43°30' E 007°45'117.1
2017-Apr-24 01:00N 43°29' E 007°44'917.4
2017-Apr-24 00:27N 43°24' E 007°32'817.2
2017-Apr-24 00:00N 43°20' E 007°23'714.8
2017-Apr-23 23:30N 43°17' E 007°14'7213.1
2017-Apr-23 18:02N 43°04' E 005°37'013.8
2017-Apr-23 18:00N 43°04' E 005°37'1514.1
2017-Apr-23 16:54N 43°11' E 005°18'513.4
2017-Apr-23 16:30N 43°16' E 005°16'5 8.9
2017-Apr-23 15:56N 43°21' E 005°20'0 0.0
2017-Apr-23 05:24N 43°21' E 005°20'1 1.5
2017-Apr-23 05:00N 43°21' E 005°19'3 5.0
2017-Apr-23 04:30N 43°19' E 005°17'10416.2
2017-Apr-22 22:06N 42°21' E 007°14'75 3.2
2017-Apr-21 22:22N 43°07' E 008°34'513.4
2017-Apr-21 21:58N 43°13' E 008°36'713.4
2017-Apr-21 21:28N 43°19' E 008°38'613.4
2017-Apr-21 21:00N 43°25' E 008°40'713.3
2017-Apr-21 20:30N 43°32' E 008°42'713.3
2017-Apr-21 20:01N 43°38' E 008°44'713.2
2017-Apr-21 19:30N 43°45' E 008°46'713.4
2017-Apr-21 19:00N 43°51' E 008°49'713.2
2017-Apr-21 18:30N 43°57' E 008°50'713.1
2017-Apr-21 18:00N 44°04' E 008°52'713.1
2017-Apr-21 17:30N 44°10' E 008°54'713.1
2017-Apr-21 17:00N 44°17' E 008°56'612.8
2017-Apr-21 16:30N 44°23' E 008°57'2 3.6
2017-Apr-21 15:57N 44°25' E 008°55'0 0.0
2017-Apr-21 15:30N 44°25' E 008°55'0 0.0
2017-Apr-21 15:00N 44°25' E 008°55'0 0.0
2017-Apr-21 14:30N 44°25' E 008°55'0 0.0
2017-Apr-21 13:30N 44°25' E 008°55'0 0.0
2017-Apr-21 13:00N 44°25' E 008°55'0 0.0
2017-Apr-21 12:30N 44°25' E 008°55'0 0.0
2017-Apr-21 12:00N 44°25' E 008°55'0 0.0
2017-Apr-21 11:30N 44°25' E 008°55'0 0.0
2017-Apr-21 11:00N 44°25' E 008°55'0 0.0
2017-Apr-21 10:30N 44°25' E 008°55'0 0.0
2017-Apr-21 10:00N 44°25' E 008°55'0 0.0
2017-Apr-21 09:30N 44°25' E 008°55'0 0.0
2017-Apr-21 09:00N 44°25' E 008°55'0 0.0
2017-Apr-21 08:21N 44°25' E 008°55'0 0.0
2017-Apr-21 07:51N 44°25' E 008°55'0 0.0
2017-Apr-21 07:21N 44°25' E 008°55'0 0.0
2017-Apr-21 06:54N 44°25' E 008°55'0 0.8
2017-Apr-21 06:31N 44°24' E 008°55'2 3.7
2017-Apr-21 06:01N 44°23' E 008°57'816.2
2017-Apr-21 05:31N 44°15' E 008°54'1020.1
2017-Apr-21 05:01N 44°07' E 008°46'1019.7
2017-Apr-21 04:30N 43°59' E 008°38'1019.5
2017-Apr-21 04:01N 43°51' E 008°30'1019.6
2017-Apr-21 03:30N 43°44' E 008°20'2919.8
2017-Apr-21 02:01N 43°29' E 007°45'319.7
2017-Apr-21 01:53N 43°28' E 007°42'819.7
2017-Apr-21 01:30N 43°24' E 007°33'1019.7
2017-Apr-21 01:00N 43°20' E 007°21'9018.0
2017-Apr-20 20:01N 43°12' E 005°18'020.8
2017-Apr-20 20:00N 43°12' E 005°18'917.6
2017-Apr-20 19:30N 43°20' E 005°18'1 0.1
2017-Apr-20 10:01N 43°21' E 005°20'0 2.0
2017-Apr-20 09:56N 43°21' E 005°19'2 5.5
2017-Apr-20 09:30N 43°19' E 005°17'917.9
2017-Apr-20 09:01N 43°11' E 005°19'1121.5
2017-Apr-20 08:31N 43°04' E 005°31'15820.8
2017-Apr-20 00:55N 43°06' E 009°07'921.4
2017-Apr-20 00:30N 43°07' E 009°19'1020.6
2017-Apr-20 00:00N 43°04' E 009°33'1121.0
2017-Apr-19 23:27N 42°55' E 009°42'54 1.2
2017-Apr-18 02:11N 42°21' E 010°38'2815.2
2017-Apr-18 00:20N 42°38' E 010°09'2514.1
2017-Apr-17 22:35N 43°02' E 010°00'215.3
2017-Apr-17 22:29N 43°04' E 009°60'715.2
2017-Apr-17 22:00N 43°10' E 009°55'815.1
2017-Apr-17 21:30N 43°16' E 009°49'815.0
2017-Apr-17 21:00N 43°23' E 009°44'714.8
2017-Apr-17 20:30N 43°29' E 009°39'715.0
2017-Apr-17 20:00N 43°36' E 009°34'714.9
2017-Apr-17 19:30N 43°42' E 009°29'815.0
2017-Apr-17 19:00N 43°49' E 009°23'715.0
2017-Apr-17 18:30N 43°55' E 009°18'816.1
2017-Apr-17 18:00N 44°02' E 009°12'918.3
2017-Apr-17 17:30N 44°10' E 009°06'918.2
2017-Apr-17 17:00N 44°18' E 008°60'713.6
2017-Apr-17 16:30N 44°24' E 008°55'1 1.5
2017-Apr-17 15:58N 44°25' E 008°55'0 0.0
2017-Apr-17 15:28N 44°25' E 008°55'0 0.0
2017-Apr-17 14:58N 44°25' E 008°55'0 0.0
2017-Apr-17 13:49N 44°25' E 008°55'0 0.0
2017-Apr-17 13:19N 44°25' E 008°55'0 0.0
2017-Apr-17 12:49N 44°25' E 008°55'0 0.0
2017-Apr-17 12:22N 44°25' E 008°55'0 0.0
2017-Apr-17 11:52N 44°25' E 008°55'0 0.0
2017-Apr-17 11:22N 44°25' E 008°55'0 0.0
2017-Apr-17 10:52N 44°25' E 008°55'0 0.0
2017-Apr-17 10:19N 44°25' E 008°55'0 0.0
2017-Apr-17 09:55N 44°25' E 008°55'0 0.0
2017-Apr-17 09:25N 44°25' E 008°55'0 0.0
2017-Apr-17 08:55N 44°25' E 008°55'0 0.0
2017-Apr-17 08:25N 44°25' E 008°55'0 0.0
2017-Apr-17 07:55N 44°25' E 008°55'0 0.0
2017-Apr-17 07:10N 44°25' E 008°55'0 0.0
2017-Apr-17 06:58N 44°25' E 008°55'0 0.0
2017-Apr-17 06:28N 44°25' E 008°55'0 0.0
2017-Apr-17 06:00N 44°25' E 008°55'0 0.3
2017-Apr-17 05:31N 44°25' E 008°55'2 3.9
2017-Apr-17 05:01N 44°23' E 008°57'714.8
2017-Apr-17 04:30N 44°17' E 009°02'815.7
2017-Apr-17 04:00N 44°10' E 009°07'815.6
2017-Apr-17 03:30N 44°03' E 009°13'815.2
2017-Apr-17 03:00N 43°56' E 009°18'815.6
2017-Apr-17 02:30N 43°50' E 009°23'918.0
2017-Apr-17 02:00N 43°42' E 009°30'918.1
2017-Apr-17 01:30N 43°34' E 009°36'918.0
2017-Apr-17 01:00N 43°26' E 009°42'917.8
2017-Apr-17 00:30N 43°19' E 009°48'917.9
2017-Apr-17 00:00N 43°11' E 009°55'918.2
2017-Apr-16 23:30N 43°03' E 010°00'918.3
2017-Apr-16 23:00N 42°54' E 010°01'2417.7
2017-Apr-16 21:41N 42°34' E 010°18'518.4
2017-Apr-16 21:26N 42°31' E 010°23'818.3
2017-Apr-16 20:58N 42°25' E 010°31'333 9.8
2017-Apr-15 11:03N 39°25' E 004°21'220.1
2017-Apr-15 10:57N 39°24' E 004°19'920.1
2017-Apr-15 10:30N 39°20' E 004°09'1019.9
2017-Apr-15 10:00N 39°14' E 003°58'1020.0
2017-Apr-15 09:30N 39°09' E 003°47'1020.3
2017-Apr-15 09:00N 39°04' E 003°35'1020.5
2017-Apr-15 08:30N 38°59' E 003°24'1020.6
2017-Apr-15 08:00N 38°54' E 003°12'1020.9
2017-Apr-15 07:30N 38°48' E 003°01'1020.5
2017-Apr-15 07:00N 38°43' E 002°50'1020.2
2017-Apr-15 06:30N 38°38' E 002°39'1020.5
2017-Apr-15 06:00N 38°33' E 002°27'1020.9
2017-Apr-15 05:30N 38°27' E 002°16'1121.5
2017-Apr-15 05:00N 38°22' E 002°04'1221.9
2017-Apr-15 04:29N 38°16' E 001°52'1021.5
2017-Apr-15 04:00N 38°11' E 001°40'1020.7
2017-Apr-15 03:30N 38°05' E 001°29'1120.7
2017-Apr-15 03:00N 37°60' E 001°18'1020.5
2017-Apr-15 02:30N 37°55' E 001°07'1020.3
2017-Apr-15 02:00N 37°50' E 000°55'1020.5
2017-Apr-15 01:30N 37°44' E 000°44'1120.6
2017-Apr-15 00:59N 37°39' E 000°33'1020.7
2017-Apr-15 00:30N 37°34' E 000°22'1020.4
2017-Apr-15 00:00N 37°29' E 000°11'1020.4
2017-Apr-14 23:30N 37°23' W 000°00'1020.5
2017-Apr-14 23:00N 37°18' W 000°11'1220.2
2017-Apr-14 22:25N 37°12' W 000°24'1019.9
2017-Apr-14 21:56N 37°07' W 000°34'1820.4
2017-Apr-14 21:03N 36°58' W 000°54'220.7
2017-Apr-14 20:57N 36°57' W 000°56'18610.8
2017-Apr-14 03:44N 36°23' W 004°43'720.3
2017-Apr-14 03:23N 36°18' W 004°50'  

Dump ship's entire track history